createdAt,value
2019-06-15T00:01:49.529Z,99.90
2019-06-15T00:04:45.669Z,99.90
2019-06-15T00:07:42.163Z,99.90
2019-06-15T00:10:38.596Z,99.90
2019-06-15T00:13:35.418Z,99.90
2019-06-15T00:16:31.959Z,99.90
2019-06-15T00:19:27.707Z,99.90
2019-06-15T00:22:23.919Z,99.90
2019-06-15T00:25:20.902Z,99.90
2019-06-15T00:28:16.753Z,99.90
2019-06-15T00:31:13.315Z,99.90
2019-06-15T00:34:10.127Z,99.90
2019-06-15T00:37:06.399Z,99.90
2019-06-15T00:40:02.166Z,99.90
2019-06-15T00:42:58.883Z,99.90
2019-06-15T00:45:54.958Z,99.90
2019-06-15T00:48:51.032Z,99.90
2019-06-15T00:51:47.354Z,99.90
2019-06-15T00:54:50.342Z,99.90
2019-06-15T00:57:41.331Z,99.90
2019-06-15T01:00:38.868Z,99.90
2019-06-15T01:03:35.946Z,99.90
2019-06-15T01:06:32.560Z,99.90
2019-06-15T01:09:28.749Z,99.90
2019-06-15T01:12:25.248Z,99.90
2019-06-15T01:15:22.064Z,99.90
2019-06-15T01:18:17.744Z,99.90
2019-06-15T01:21:13.982Z,99.90
2019-06-15T01:24:10.674Z,99.90
2019-06-15T01:27:06.819Z,99.90
2019-06-15T01:30:03.496Z,99.90
2019-06-15T01:32:59.491Z,99.90
2019-06-15T01:35:55.116Z,99.90
2019-06-15T01:38:53.076Z,99.90
2019-06-15T01:41:49.406Z,99.90
2019-06-15T01:44:45.251Z,99.90
2019-06-15T01:47:41.935Z,99.90
2019-06-15T01:50:37.408Z,99.90
2019-06-15T01:53:33.399Z,99.90
2019-06-15T01:56:29.113Z,99.90
2019-06-15T01:59:25.946Z,99.90
2019-06-15T02:02:21.624Z,99.90
2019-06-15T02:05:18.691Z,99.90
2019-06-15T02:08:15.316Z,99.90
2019-06-15T02:11:11.723Z,99.90
2019-06-15T02:14:08.316Z,99.90
2019-06-15T02:17:04.743Z,99.90
2019-06-15T02:20:01.317Z,99.90
2019-06-15T02:22:57.699Z,99.90
2019-06-15T02:25:54.440Z,99.90
2019-06-15T02:28:51.161Z,99.90
2019-06-15T02:31:47.112Z,99.90
2019-06-15T02:34:43.494Z,99.90
2019-06-15T02:37:39.822Z,99.90
2019-06-15T02:40:36.139Z,99.90
2019-06-15T02:43:32.764Z,99.90
2019-06-15T02:46:29.636Z,99.90
2019-06-15T02:49:25.725Z,99.90
2019-06-15T02:52:22.675Z,99.90
2019-06-15T02:55:19.825Z,99.90
2019-06-15T02:58:15.900Z,99.90
2019-06-15T03:01:11.981Z,99.90
2019-06-15T03:04:07.434Z,99.90
2019-06-15T03:07:03.100Z,99.90
2019-06-15T03:09:59.489Z,99.90
2019-06-15T03:12:56.364Z,99.90
2019-06-15T03:15:52.881Z,99.90
2019-06-15T03:18:49.442Z,99.90
2019-06-15T03:21:44.911Z,99.90
2019-06-15T03:24:41.102Z,99.90
2019-06-15T03:27:37.705Z,99.90
2019-06-15T03:30:34.327Z,99.90
2019-06-15T03:33:30.620Z,99.90
2019-06-15T03:36:27.282Z,99.90
2019-06-15T03:39:23.533Z,99.90
2019-06-15T03:42:19.643Z,99.90
2019-06-15T03:45:15.135Z,99.90
2019-06-15T03:48:11.575Z,99.90
2019-06-15T03:51:08.043Z,99.90
2019-06-15T03:54:03.412Z,99.90
2019-06-15T03:56:59.052Z,99.90
2019-06-15T03:59:55.342Z,99.90
2019-06-15T04:02:51.813Z,99.90
2019-06-15T04:05:48.261Z,99.90
2019-06-15T04:08:44.937Z,99.90
2019-06-15T04:11:41.196Z,99.90
2019-06-15T04:14:37.745Z,99.90
2019-06-15T04:17:34.325Z,99.90
2019-06-15T04:20:30.218Z,99.90
2019-06-15T04:23:26.239Z,99.90
2019-06-15T04:26:35.294Z,99.90
2019-06-15T04:29:20.226Z,99.90
2019-06-15T04:32:16.700Z,99.90
2019-06-15T04:35:13.347Z,99.90
2019-06-15T04:38:10.354Z,99.90
2019-06-15T04:41:08.175Z,99.90
2019-06-15T04:44:05.197Z,99.90
2019-06-15T04:47:01.838Z,99.90
2019-06-15T04:49:57.447Z,99.90
2019-06-15T04:52:54.120Z,99.90
2019-06-15T04:55:49.710Z,99.90
2019-06-15T04:58:45.760Z,99.90
2019-06-15T05:01:42.677Z,99.90
2019-06-15T05:04:38.797Z,99.90
2019-06-15T05:07:35.472Z,99.90
2019-06-15T05:10:31.780Z,99.90
2019-06-15T05:13:27.825Z,99.90
2019-06-15T05:16:23.421Z,99.90
2019-06-15T05:19:19.987Z,99.90
2019-06-15T05:22:18.316Z,99.90
2019-06-15T05:25:15.391Z,99.90
2019-06-15T05:28:11.425Z,99.90
2019-06-15T05:31:07.129Z,99.90
2019-06-15T05:34:02.731Z,99.90
2019-06-15T05:36:59.177Z,99.90
2019-06-15T05:39:56.278Z,99.90
2019-06-15T05:42:51.958Z,99.90
2019-06-15T05:45:48.301Z,99.90
2019-06-15T05:48:45.052Z,99.90
2019-06-15T05:51:41.339Z,99.90
2019-06-15T05:54:37.508Z,99.90
2019-06-15T05:57:33.249Z,99.90
2019-06-15T06:00:29.282Z,99.90
2019-06-15T06:03:25.636Z,99.90
2019-06-15T06:06:21.957Z,99.90
2019-06-15T06:09:17.862Z,99.90
2019-06-15T06:12:15.830Z,99.90
2019-06-15T06:15:12.612Z,99.90
2019-06-15T06:18:08.319Z,99.90
2019-06-15T06:21:04.768Z,99.90
2019-06-15T06:24:01.238Z,99.90
2019-06-15T06:26:57.578Z,99.90
2019-06-15T06:29:54.192Z,99.90
2019-06-15T06:32:50.590Z,99.90
2019-06-15T06:35:47.301Z,99.90
2019-06-15T06:38:45.832Z,99.90
2019-06-15T06:41:41.779Z,99.90
2019-06-15T06:44:38.310Z,99.90
2019-06-15T06:47:34.345Z,99.90
2019-06-15T06:50:31.230Z,99.90
2019-06-15T06:53:26.773Z,99.90
2019-06-15T06:56:22.877Z,99.90
2019-06-15T06:59:18.591Z,99.90
2019-06-15T07:02:15.203Z,99.90
2019-06-15T07:05:11.879Z,99.90
2019-06-15T07:08:07.991Z,99.90
2019-06-15T07:11:04.607Z,99.90
2019-06-15T07:14:01.203Z,99.90
2019-06-15T07:16:57.688Z,99.90
2019-06-15T07:19:54.242Z,99.90
2019-06-15T07:22:50.863Z,99.90
2019-06-15T07:25:47.493Z,99.90
2019-06-15T07:28:43.999Z,99.90
2019-06-15T07:31:40.724Z,99.90
2019-06-15T07:34:37.269Z,99.90
2019-06-15T07:37:33.628Z,99.90
2019-06-15T07:40:30.203Z,99.90
2019-06-15T07:43:26.793Z,99.90
2019-06-15T07:46:23.280Z,99.90
2019-06-15T07:49:19.841Z,99.90
2019-06-15T07:52:15.620Z,99.90
2019-06-15T07:55:12.124Z,99.90
2019-06-15T07:58:23.356Z,99.90
2019-06-15T08:01:06.118Z,99.90
2019-06-15T08:04:02.778Z,99.90
2019-06-15T08:06:58.464Z,99.90
2019-06-15T08:09:55.756Z,99.90
2019-06-15T08:12:52.604Z,99.90
2019-06-15T08:15:48.600Z,99.90
2019-06-15T08:18:46.908Z,99.90
2019-06-15T08:21:43.300Z,99.90
2019-06-15T08:24:39.237Z,99.90
2019-06-15T08:27:35.022Z,99.90
2019-06-15T08:30:45.978Z,99.90
2019-06-15T08:33:44.708Z,99.90
2019-06-15T08:36:40.079Z,96.80
2019-06-15T08:39:35.701Z,94.80
2019-06-15T08:42:31.013Z,94.50
2019-06-15T08:45:27.322Z,92.30
2019-06-15T08:48:23.980Z,91.90
2019-06-15T08:51:19.744Z,87.00
2019-06-15T08:54:16.191Z,88.70
2019-06-15T08:57:12.385Z,86.60
2019-06-15T09:00:10.540Z,90.10
2019-06-15T09:03:07.042Z,88.50
2019-06-15T09:06:04.752Z,85.50
2019-06-15T09:09:01.538Z,81.60
2019-06-15T09:11:59.671Z,81.50
2019-06-15T09:14:56.026Z,80.20
2019-06-15T09:17:56.049Z,77.90
2019-06-15T09:20:52.796Z,79.00
2019-06-15T09:23:49.507Z,75.00
2019-06-15T09:26:46.424Z,74.10
2019-06-15T09:29:44.642Z,72.50
2019-06-15T09:32:40.194Z,71.30
2019-06-15T09:35:35.465Z,65.60
2019-06-15T09:38:31.812Z,63.00
2019-06-15T09:41:27.817Z,62.90
2019-06-15T09:44:23.414Z,62.40
2019-06-15T09:47:19.831Z,59.60
2019-06-15T09:50:16.085Z,57.70
2019-06-15T09:53:12.605Z,58.60
2019-06-15T09:56:09.338Z,58.10
2019-06-15T09:59:05.585Z,57.00
2019-06-15T10:02:01.872Z,59.00
2019-06-15T10:04:59.261Z,59.80
2019-06-15T10:07:55.779Z,64.30
2019-06-15T10:10:52.421Z,65.70
2019-06-15T10:13:48.680Z,66.00
2019-06-15T10:16:44.424Z,66.50
2019-06-15T10:19:41.073Z,65.90
2019-06-15T10:22:36.876Z,65.60
2019-06-15T10:25:32.583Z,68.70
2019-06-15T10:28:29.178Z,69.90
2019-06-15T10:31:25.593Z,65.30
2019-06-15T10:34:21.849Z,62.80
2019-06-15T10:37:18.411Z,59.70
2019-06-15T10:40:14.769Z,62.10
2019-06-15T10:43:10.600Z,62.30
2019-06-15T10:46:07.353Z,57.50
2019-06-15T10:49:03.882Z,57.20
2019-06-15T10:52:00.523Z,56.10
2019-06-15T10:54:57.333Z,59.20
2019-06-15T10:57:53.953Z,62.90
2019-06-15T11:00:50.544Z,65.50
2019-06-15T11:03:50.553Z,65.50
2019-06-15T11:06:54.541Z,65.30
2019-06-15T11:09:45.817Z,65.30
2019-06-15T11:12:46.768Z,64.80
2019-06-15T11:15:42.260Z,65.00
2019-06-15T11:18:43.057Z,63.60
2019-06-15T11:21:39.434Z,64.30
2019-06-15T11:24:34.803Z,59.90
2019-06-15T11:27:31.438Z,59.30
2019-06-15T11:30:28.165Z,59.90
2019-06-15T11:33:25.664Z,58.20
2019-06-15T11:36:22.639Z,60.50
2019-06-15T11:39:18.789Z,58.30
2019-06-15T11:42:15.235Z,58.00
2019-06-15T11:45:11.025Z,57.10
2019-06-15T11:48:06.962Z,59.00
2019-06-15T11:51:03.754Z,61.20
2019-06-15T11:54:00.147Z,61.50
2019-06-15T11:56:56.972Z,58.70
2019-06-15T11:59:52.728Z,57.80
2019-06-15T12:02:48.555Z,56.50
2019-06-15T12:05:45.072Z,56.90
2019-06-15T12:08:41.273Z,59.10
2019-06-15T12:11:37.767Z,59.20
2019-06-15T12:14:34.070Z,58.70
2019-06-15T12:17:30.188Z,57.50
2019-06-15T12:20:25.914Z,58.60
2019-06-15T12:23:22.849Z,61.20
2019-06-15T12:26:18.890Z,58.80
2019-06-15T12:29:14.355Z,57.90
2019-06-15T12:32:10.795Z,58.30
2019-06-15T12:35:08.127Z,56.40
2019-06-15T12:38:03.865Z,57.00
2019-06-15T12:41:00.484Z,57.80
2019-06-15T12:43:58.021Z,57.00
2019-06-15T12:46:55.809Z,55.80
2019-06-15T12:49:52.802Z,57.10
2019-06-15T12:52:49.642Z,57.20
2019-06-15T12:55:45.087Z,56.70
2019-06-15T12:58:40.810Z,54.90
2019-06-15T13:01:38.902Z,57.30
2019-06-15T13:04:45.737Z,58.30
2019-06-15T13:07:43.386Z,59.90
2019-06-15T13:10:43.686Z,59.50
2019-06-15T13:13:39.814Z,60.40
2019-06-15T13:16:39.633Z,60.10
2019-06-15T13:19:34.100Z,62.30
2019-06-15T13:22:30.582Z,63.50
2019-06-15T13:25:26.838Z,62.80
2019-06-15T13:28:23.406Z,60.50
2019-06-15T13:31:18.935Z,59.00
2019-06-15T13:34:14.063Z,58.30
2019-06-15T13:37:10.558Z,58.30
2019-06-15T13:40:06.943Z,58.10
2019-06-15T13:43:02.272Z,57.10
2019-06-15T13:45:58.714Z,55.70
2019-06-15T13:48:55.343Z,58.00
2019-06-15T13:51:50.937Z,59.00
2019-06-15T13:54:48.089Z,58.50
2019-06-15T13:57:44.800Z,56.00
2019-06-15T14:00:40.587Z,57.10
2019-06-15T14:03:36.587Z,57.80
2019-06-15T14:06:32.925Z,56.40
2019-06-15T14:09:29.610Z,57.20
2019-06-15T14:12:25.980Z,58.50
2019-06-15T14:15:21.688Z,57.90
2019-06-15T14:18:18.111Z,57.80
2019-06-15T14:21:14.472Z,58.60
2019-06-15T14:24:10.310Z,59.60
2019-06-15T14:27:06.112Z,61.30
2019-06-15T14:30:02.451Z,61.10
2019-06-15T14:32:58.333Z,62.30
2019-06-15T14:35:54.431Z,63.20
2019-06-15T14:38:49.872Z,62.80
2019-06-15T14:41:50.915Z,63.90
2019-06-15T14:44:45.510Z,65.50
2019-06-15T14:47:41.265Z,63.50
2019-06-15T14:50:37.098Z,63.40
2019-06-15T14:53:35.496Z,65.20
2019-06-15T14:56:30.676Z,66.30
2019-06-15T14:59:27.260Z,67.10
2019-06-15T15:02:26.113Z,69.20
2019-06-15T15:05:21.338Z,71.10
2019-06-15T15:08:16.920Z,72.00
2019-06-15T15:11:17.067Z,73.50
2019-06-15T15:14:13.116Z,72.40
2019-06-15T15:17:09.631Z,74.20
2019-06-15T15:20:07.160Z,73.00
2019-06-15T15:23:03.014Z,72.90
2019-06-15T15:25:58.175Z,74.50
2019-06-15T15:28:56.613Z,75.70
2019-06-15T15:31:52.103Z,74.20
2019-06-15T15:34:48.382Z,75.70
2019-06-15T15:37:46.184Z,75.00
2019-06-15T15:40:41.673Z,76.40
2019-06-15T15:43:37.872Z,75.40
2019-06-15T15:46:34.224Z,75.20
2019-06-15T15:49:30.638Z,76.30
2019-06-15T15:52:26.981Z,76.80
2019-06-15T15:55:26.503Z,76.90
2019-06-15T15:58:22.464Z,75.70
2019-06-15T16:01:19.524Z,75.00
2019-06-15T16:04:18.204Z,74.50
2019-06-15T16:07:13.771Z,75.70
2019-06-15T16:10:09.286Z,76.20
2019-06-15T16:13:06.438Z,77.90
2019-06-15T16:16:02.995Z,76.90
2019-06-15T16:19:00.984Z,76.70
2019-06-15T16:21:57.988Z,76.40
2019-06-15T16:24:56.312Z,76.60
2019-06-15T16:27:51.427Z,77.10
2019-06-15T16:31:05.179Z,78.80
2019-06-15T16:33:46.498Z,77.30
2019-06-15T16:36:42.885Z,77.30
2019-06-15T16:39:39.216Z,77.80
2019-06-15T16:42:36.686Z,76.90
2019-06-15T16:45:33.002Z,76.00
2019-06-15T16:48:29.153Z,76.80
2019-06-15T16:51:26.838Z,77.70
2019-06-15T16:54:21.456Z,76.30
2019-06-15T16:57:17.509Z,76.20
2019-06-15T17:00:20.920Z,76.30
2019-06-15T17:03:22.059Z,76.30
2019-06-15T17:06:14.445Z,77.00
2019-06-15T17:09:11.026Z,76.00
2019-06-15T17:12:07.530Z,74.40
2019-06-15T17:15:13.327Z,75.90
2019-06-15T17:18:10.187Z,75.30
2019-06-15T17:21:07.181Z,75.00
2019-06-15T17:24:06.786Z,74.60
2019-06-15T17:27:03.106Z,74.50
2019-06-15T17:29:58.815Z,74.40
2019-06-15T17:32:56.564Z,74.50
2019-06-15T17:35:58.745Z,74.70
2019-06-15T17:38:48.887Z,74.20
2019-06-15T17:41:47.276Z,74.90
2019-06-15T17:44:42.783Z,75.10
2019-06-15T17:47:39.048Z,75.30
2019-06-15T17:50:43.988Z,75.10
2019-06-15T17:53:40.087Z,76.30
2019-06-15T17:56:36.775Z,75.00
2019-06-15T17:59:36.290Z,74.70
2019-06-15T18:02:30.983Z,75.50
2019-06-15T18:05:27.506Z,75.60
2019-06-15T18:08:26.776Z,76.70
2019-06-15T18:11:22.513Z,76.30
2019-06-15T18:14:18.828Z,76.60
2019-06-15T18:17:17.002Z,77.40
2019-06-15T18:20:16.166Z,78.30
2019-06-15T18:23:12.695Z,77.60
2019-06-15T18:26:08.456Z,79.00
2019-06-15T18:29:03.691Z,79.00
2019-06-15T18:32:03.407Z,79.20
2019-06-15T18:34:59.149Z,78.80
2019-06-15T18:37:56.763Z,80.10
2019-06-15T18:40:52.510Z,80.50
2019-06-15T18:43:48.067Z,79.40
2019-06-15T18:46:46.587Z,80.50
2019-06-15T18:49:43.198Z,79.70
2019-06-15T18:52:38.823Z,79.50
2019-06-15T18:55:36.862Z,79.80
2019-06-15T18:58:32.343Z,79.50
2019-06-15T19:01:28.820Z,80.20
2019-06-15T19:04:30.641Z,81.70
2019-06-15T19:07:22.340Z,80.60
2019-06-15T19:10:33.079Z,82.00
2019-06-15T19:13:29.720Z,83.10
2019-06-15T19:16:26.228Z,84.40
2019-06-15T19:19:22.669Z,84.00
2019-06-15T19:22:18.422Z,84.10
2019-06-15T19:25:16.175Z,83.50
2019-06-15T19:28:12.710Z,84.20
2019-06-15T19:31:09.041Z,84.60
2019-06-15T19:34:06.777Z,84.90
2019-06-15T19:37:02.494Z,86.40
2019-06-15T19:39:59.058Z,85.60
2019-06-15T19:42:57.015Z,86.70
2019-06-15T19:45:53.456Z,87.50
2019-06-15T19:48:49.940Z,88.40
2019-06-15T19:51:47.317Z,89.60
2019-06-15T19:54:43.813Z,90.20
2019-06-15T19:57:40.720Z,90.10
2019-06-15T20:00:37.584Z,90.00
2019-06-15T20:03:36.312Z,90.80
2019-06-15T20:06:32.941Z,90.90
2019-06-15T20:09:29.120Z,91.20
2019-06-15T20:12:26.468Z,91.70
2019-06-15T20:15:25.919Z,91.60
2019-06-15T20:18:19.940Z,92.00
2019-06-15T20:21:16.528Z,92.90
2019-06-15T20:24:12.771Z,93.10
2019-06-15T20:27:10.346Z,93.50
2019-06-15T20:30:08.807Z,94.20
2019-06-15T20:33:07.526Z,94.50
2019-06-15T20:36:02.710Z,94.60
2019-06-15T20:39:00.918Z,96.00
2019-06-15T20:41:57.827Z,96.30
2019-06-15T20:44:53.836Z,96.60
2019-06-15T20:47:55.991Z,97.90
2019-06-15T20:50:53.111Z,98.30
2019-06-15T20:53:49.532Z,99.40
2019-06-15T20:56:46.321Z,99.90
2019-06-15T20:59:42.129Z,99.90
2019-06-15T21:02:38.627Z,99.90
2019-06-15T21:05:41.048Z,99.90
2019-06-15T21:08:36.170Z,99.90
2019-06-15T21:11:29.919Z,99.90
2019-06-15T21:14:27.303Z,99.90
2019-06-15T21:17:23.146Z,99.90
2019-06-15T21:20:19.996Z,99.90
2019-06-15T21:23:17.359Z,99.90
2019-06-15T21:26:16.408Z,99.90
2019-06-15T21:29:16.593Z,99.90
2019-06-15T21:32:12.208Z,99.90
2019-06-15T21:35:08.751Z,99.90
2019-06-15T21:38:06.491Z,99.90
2019-06-15T21:41:02.662Z,99.90
2019-06-15T21:43:57.945Z,99.90
2019-06-15T21:46:56.256Z,99.90
2019-06-15T21:49:52.139Z,99.90
2019-06-15T21:52:48.509Z,99.90
2019-06-15T21:55:47.165Z,99.90
2019-06-15T21:58:43.659Z,99.90
2019-06-15T22:01:40.190Z,99.90
2019-06-15T22:04:36.788Z,99.90
2019-06-15T22:07:33.128Z,99.90
2019-06-15T22:10:28.701Z,99.90
2019-06-15T22:13:26.564Z,99.90
2019-06-15T22:16:23.065Z,99.90
2019-06-15T22:19:20.123Z,99.90
2019-06-15T22:22:16.716Z,99.90
2019-06-15T22:25:15.841Z,99.90
2019-06-15T22:28:10.971Z,99.90
2019-06-15T22:31:06.860Z,99.90
2019-06-15T22:34:03.727Z,99.90
2019-06-15T22:37:00.556Z,99.90
2019-06-15T22:39:56.247Z,99.90
2019-06-15T22:42:52.848Z,99.90
2019-06-15T22:45:50.149Z,99.90
2019-06-15T22:48:47.250Z,99.90
2019-06-15T22:51:45.902Z,99.90
2019-06-15T22:54:41.328Z,99.90
2019-06-15T22:57:38.019Z,99.90
2019-06-15T23:00:34.388Z,99.90
2019-06-15T23:03:29.997Z,99.90
2019-06-15T23:06:37.050Z,99.90
2019-06-15T23:09:23.641Z,99.90
2019-06-15T23:12:19.944Z,99.90
2019-06-15T23:15:17.532Z,99.90
2019-06-15T23:18:14.293Z,99.90
2019-06-15T23:21:10.446Z,99.90
2019-06-15T23:24:06.830Z,99.90
2019-06-15T23:27:03.524Z,99.90
2019-06-15T23:29:59.763Z,99.90
2019-06-15T23:32:56.682Z,99.90
2019-06-15T23:35:58.814Z,99.90
2019-06-15T23:38:57.125Z,99.90
2019-06-15T23:41:52.600Z,99.90
2019-06-15T23:44:49.234Z,99.90
2019-06-15T23:47:46.645Z,99.90
2019-06-15T23:50:46.380Z,99.90
2019-06-15T23:53:46.300Z,99.90
2019-06-15T23:56:43.466Z,99.90
2019-06-15T23:59:39.546Z,99.90
